sensor_id;sensor_type;location;lat;lon;timestamp;P1;durP1;ratioP1;P2;durP2;ratioP2
30743;SDS011;17486;46.738;7.622;2024-03-23T00:53:11;4.80;;;2.40;;
30743;SDS011;17486;46.738;7.622;2024-03-23T00:55:37;3.15;;;2.50;;
30743;SDS011;17486;46.738;7.622;2024-03-23T00:58:02;4.07;;;2.63;;
30743;SDS011;17486;46.738;7.622;2024-03-23T01:00:28;4.57;;;2.70;;
30743;SDS011;17486;46.738;7.622;2024-03-23T01:02:55;4.38;;;2.80;;
30743;SDS011;17486;46.738;7.622;2024-03-23T01:05:20;3.92;;;2.88;;
30743;SDS011;17486;46.738;7.622;2024-03-23T01:07:46;4.38;;;3.28;;
30743;SDS011;17486;46.738;7.622;2024-03-23T01:10:11;3.72;;;2.70;;
30743;SDS011;17486;46.738;7.622;2024-03-23T01:12:37;5.28;;;2.85;;
30743;SDS011;17486;46.738;7.622;2024-03-23T01:15:02;5.65;;;2.65;;
30743;SDS011;17486;46.738;7.622;2024-03-23T01:17:27;4.00;;;3.00;;
30743;SDS011;17486;46.738;7.622;2024-03-23T01:19:53;3.33;;;2.70;;
30743;SDS011;17486;46.738;7.622;2024-03-23T01:22:18;5.25;;;2.58;;
30743;SDS011;17486;46.738;7.622;2024-03-23T01:24:44;3.38;;;2.55;;
30743;SDS011;17486;46.738;7.622;2024-03-23T01:27:09;4.13;;;2.85;;
30743;SDS011;17486;46.738;7.622;2024-03-23T01:29:35;4.15;;;2.85;;
30743;SDS011;17486;46.738;7.622;2024-03-23T01:32:00;4.38;;;2.40;;
30743;SDS011;17486;46.738;7.622;2024-03-23T01:34:26;7.15;;;2.72;;
30743;SDS011;17486;46.738;7.622;2024-03-23T01:36:52;5.55;;;2.45;;
30743;SDS011;17486;46.738;7.622;2024-03-23T01:39:18;4.18;;;3.00;;
30743;SDS011;17486;46.738;7.622;2024-03-23T01:41:43;5.65;;;3.38;;
30743;SDS011;17486;46.738;7.622;2024-03-23T01:44:09;3.83;;;2.63;;
30743;SDS011;17486;46.738;7.622;2024-03-23T01:46:35;2.42;;;1.80;;
30743;SDS011;17486;46.738;7.622;2024-03-23T01:49:02;3.53;;;2.25;;
30743;SDS011;17486;46.738;7.622;2024-03-23T01:51:29;2.97;;;2.50;;
30743;SDS011;17486;46.738;7.622;2024-03-23T01:53:55;3.67;;;2.17;;
30743;SDS011;17486;46.738;7.622;2024-03-23T01:56:21;2.60;;;1.73;;
30743;SDS011;17486;46.738;7.622;2024-03-23T01:58:47;3.08;;;1.88;;
30743;SDS011;17486;46.738;7.622;2024-03-23T02:01:12;2.72;;;2.10;;
30743;SDS011;17486;46.738;7.622;2024-03-23T02:03:38;3.00;;;1.90;;
30743;SDS011;17486;46.738;7.622;2024-03-23T02:06:04;2.45;;;2.03;;
30743;SDS011;17486;46.738;7.622;2024-03-23T02:08:32;6.47;;;2.30;;
30743;SDS011;17486;46.738;7.622;2024-03-23T02:10:59;2.45;;;1.90;;
30743;SDS011;17486;46.738;7.622;2024-03-23T02:13:24;5.00;;;2.40;;
30743;SDS011;17486;46.738;7.622;2024-03-23T02:15:50;4.03;;;2.05;;
30743;SDS011;17486;46.738;7.622;2024-03-23T02:18:15;2.00;;;1.83;;
30743;SDS011;17486;46.738;7.622;2024-03-23T02:20:42;2.70;;;1.77;;
30743;SDS011;17486;46.738;7.622;2024-03-23T02:23:13;2.33;;;1.90;;
30743;SDS011;17486;46.738;7.622;2024-03-23T02:25:43;2.03;;;1.92;;
30743;SDS011;17486;46.738;7.622;2024-03-23T02:28:09;6.03;;;2.00;;
30743;SDS011;17486;46.738;7.622;2024-03-23T02:30:34;2.30;;;1.90;;
30743;SDS011;17486;46.738;7.622;2024-03-23T02:33:00;5.15;;;2.17;;
30743;SDS011;17486;46.738;7.622;2024-03-23T02:35:25;2.28;;;1.90;;
30743;SDS011;17486;46.738;7.622;2024-03-23T02:37:51;4.10;;;2.10;;
30743;SDS011;17486;46.738;7.622;2024-03-23T02:40:16;2.60;;;2.05;;
30743;SDS011;17486;46.738;7.622;2024-03-23T02:42:42;2.67;;;2.03;;
30743;SDS011;17486;46.738;7.622;2024-03-23T02:45:08;3.85;;;1.88;;
30743;SDS011;17486;46.738;7.622;2024-03-23T02:47:34;3.20;;;2.05;;
30743;SDS011;17486;46.738;7.622;2024-03-23T02:50:00;4.03;;;2.33;;
30743;SDS011;17486;46.738;7.622;2024-03-23T02:52:26;3.08;;;2.47;;
30743;SDS011;17486;46.738;7.622;2024-03-23T02:54:52;3.38;;;2.35;;
30743;SDS011;17486;46.738;7.622;2024-03-23T02:57:17;2.50;;;2.20;;
30743;SDS011;17486;46.738;7.622;2024-03-23T02:59:43;7.85;;;2.72;;
30743;SDS011;17486;46.738;7.622;2024-03-23T03:02:08;3.47;;;2.53;;
30743;SDS011;17486;46.738;7.622;2024-03-23T03:04:34;7.97;;;3.17;;
30743;SDS011;17486;46.738;7.622;2024-03-23T03:06:59;3.03;;;2.28;;
30743;SDS011;17486;46.738;7.622;2024-03-23T03:09:25;3.38;;;2.30;;
30743;SDS011;17486;46.738;7.622;2024-03-23T03:11:50;5.78;;;2.40;;
30743;SDS011;17486;46.738;7.622;2024-03-23T03:14:16;5.30;;;2.38;;
30743;SDS011;17486;46.738;7.622;2024-03-23T03:16:41;2.35;;;2.08;;
30743;SDS011;17486;46.738;7.622;2024-03-23T03:19:06;4.47;;;2.20;;
30743;SDS011;17486;46.738;7.622;2024-03-23T03:21:32;3.03;;;2.05;;
30743;SDS011;17486;46.738;7.622;2024-03-23T03:23:57;3.55;;;2.00;;
30743;SDS011;17486;46.738;7.622;2024-03-23T03:26:23;2.22;;;1.83;;
30743;SDS011;17486;46.738;7.622;2024-03-23T03:28:49;3.08;;;2.33;;
30743;SDS011;17486;46.738;7.622;2024-03-23T03:31:16;2.00;;;1.80;;
30743;SDS011;17486;46.738;7.622;2024-03-23T03:33:41;5.28;;;2.00;;
30743;SDS011;17486;46.738;7.622;2024-03-23T03:36:07;2.40;;;2.00;;
30743;SDS011;17486;46.738;7.622;2024-03-23T03:38:33;3.60;;;2.30;;
30743;SDS011;17486;46.738;7.622;2024-03-23T03:41:00;4.05;;;2.60;;
30743;SDS011;17486;46.738;7.622;2024-03-23T03:43:26;2.83;;;2.60;;
30743;SDS011;17486;46.738;7.622;2024-03-23T03:45:52;3.95;;;2.22;;
30743;SDS011;17486;46.738;7.622;2024-03-23T03:48:18;4.28;;;2.33;;
30743;SDS011;17486;46.738;7.622;2024-03-23T03:50:43;2.38;;;2.17;;
30743;SDS011;17486;46.738;7.622;2024-03-23T03:53:09;2.10;;;1.77;;
30743;SDS011;17486;46.738;7.622;2024-03-23T03:55:34;3.20;;;2.00;;
30743;SDS011;17486;46.738;7.622;2024-03-23T03:57:59;3.75;;;2.58;;
30743;SDS011;17486;46.738;7.622;2024-03-23T04:00:25;4.47;;;2.38;;
30743;SDS011;17486;46.738;7.622;2024-03-23T04:02:50;2.70;;;1.98;;
30743;SDS011;17486;46.738;7.622;2024-03-23T04:05:16;3.15;;;2.13;;
30743;SDS011;17486;46.738;7.622;2024-03-23T04:07:41;4.95;;;2.20;;
30743;SDS011;17486;46.738;7.622;2024-03-23T04:10:07;3.28;;;2.20;;
30743;SDS011;17486;46.738;7.622;2024-03-23T04:12:33;3.13;;;2.00;;
30743;SDS011;17486;46.738;7.622;2024-03-23T04:14:59;2.90;;;2.20;;
30743;SDS011;17486;46.738;7.622;2024-03-23T04:17:26;3.88;;;2.17;;
30743;SDS011;17486;46.738;7.622;2024-03-23T04:19:56;4.20;;;1.90;;
30743;SDS011;17486;46.738;7.622;2024-03-23T04:22:22;2.60;;;2.05;;
30743;SDS011;17486;46.738;7.622;2024-03-23T04:24:49;3.42;;;2.00;;
30743;SDS011;17486;46.738;7.622;2024-03-23T04:27:14;4.50;;;1.83;;
30743;SDS011;17486;46.738;7.622;2024-03-23T04:29:40;2.75;;;2.20;;
30743;SDS011;17486;46.738;7.622;2024-03-23T04:32:05;4.55;;;2.20;;
30743;SDS011;17486;46.738;7.622;2024-03-23T04:34:31;3.30;;;1.77;;
30743;SDS011;17486;46.738;7.622;2024-03-23T04:36:58;4.47;;;2.00;;
30743;SDS011;17486;46.738;7.622;2024-03-23T04:39:24;3.90;;;2.20;;
30743;SDS011;17486;46.738;7.622;2024-03-23T04:41:49;3.90;;;2.22;;
30743;SDS011;17486;46.738;7.622;2024-03-23T04:44:15;3.08;;;2.15;;
30743;SDS011;17486;46.738;7.622;2024-03-23T04:46:40;6.00;;;2.75;;
30743;SDS011;17486;46.738;7.622;2024-03-23T04:49:06;4.10;;;2.10;;
30743;SDS011;17486;46.738;7.622;2024-03-23T04:51:35;3.33;;;2.38;;
30743;SDS011;17486;46.738;7.622;2024-03-23T04:54:02;3.90;;;2.30;;
30743;SDS011;17486;46.738;7.622;2024-03-23T04:56:29;3.30;;;2.25;;
30743;SDS011;17486;46.738;7.622;2024-03-23T04:58:56;2.10;;;1.80;;
30743;SDS011;17486;46.738;7.622;2024-03-23T05:01:26;2.75;;;2.13;;
30743;SDS011;17486;46.738;7.622;2024-03-23T05:03:51;4.20;;;2.08;;
30743;SDS011;17486;46.738;7.622;2024-03-23T05:06:18;6.97;;;2.58;;
30743;SDS011;17486;46.738;7.622;2024-03-23T05:08:44;2.78;;;2.00;;
30743;SDS011;17486;46.738;7.622;2024-03-23T05:11:11;4.50;;;1.63;;
30743;SDS011;17486;46.738;7.622;2024-03-23T05:13:36;2.03;;;1.70;;
30743;SDS011;17486;46.738;7.622;2024-03-23T05:16:01;2.88;;;1.63;;
30743;SDS011;17486;46.738;7.622;2024-03-23T05:18:27;4.28;;;2.00;;
30743;SDS011;17486;46.738;7.622;2024-03-23T05:20:56;2.63;;;2.00;;
30743;SDS011;17486;46.738;7.622;2024-03-23T05:23:23;3.83;;;2.30;;
30743;SDS011;17486;46.738;7.622;2024-03-23T05:25:49;2.25;;;1.77;;
30743;SDS011;17486;46.738;7.622;2024-03-23T05:28:15;3.08;;;1.83;;
30743;SDS011;17486;46.738;7.622;2024-03-23T05:30:40;3.03;;;2.08;;
30743;SDS011;17486;46.738;7.622;2024-03-23T05:33:05;4.15;;;2.13;;
30743;SDS011;17486;46.738;7.622;2024-03-23T05:35:31;3.75;;;2.42;;
30743;SDS011;17486;46.738;7.622;2024-03-23T05:37:57;3.63;;;2.35;;
30743;SDS011;17486;46.738;7.622;2024-03-23T05:40:26;2.65;;;2.25;;
30743;SDS011;17486;46.738;7.622;2024-03-23T05:42:52;4.28;;;2.13;;
30743;SDS011;17486;46.738;7.622;2024-03-23T05:45:23;4.63;;;2.58;;
30743;SDS011;17486;46.738;7.622;2024-03-23T05:47:48;4.72;;;2.40;;
30743;SDS011;17486;46.738;7.622;2024-03-23T05:50:14;3.78;;;2.17;;
30743;SDS011;17486;46.738;7.622;2024-03-23T05:52:39;5.50;;;2.58;;
30743;SDS011;17486;46.738;7.622;2024-03-23T05:55:05;3.88;;;2.33;;
30743;SDS011;17486;46.738;7.622;2024-03-23T05:57:31;3.92;;;2.78;;
30743;SDS011;17486;46.738;7.622;2024-03-23T05:59:57;8.15;;;2.75;;
30743;SDS011;17486;46.738;7.622;2024-03-23T06:02:22;4.47;;;2.47;;
30743;SDS011;17486;46.738;7.622;2024-03-23T06:04:49;2.88;;;2.38;;
30743;SDS011;17486;46.738;7.622;2024-03-23T06:07:15;4.22;;;2.50;;
30743;SDS011;17486;46.738;7.622;2024-03-23T06:09:41;3.75;;;2.90;;
30743;SDS011;17486;46.738;7.622;2024-03-23T06:12:07;3.38;;;2.30;;
30743;SDS011;17486;46.738;7.622;2024-03-23T06:14:33;2.78;;;1.77;;
30743;SDS011;17486;46.738;7.622;2024-03-23T06:16:59;1.70;;;1.60;;
30743;SDS011;17486;46.738;7.622;2024-03-23T06:19:25;3.80;;;1.70;;
30743;SDS011;17486;46.738;7.622;2024-03-23T06:21:52;4.47;;;2.17;;
30743;SDS011;17486;46.738;7.622;2024-03-23T06:24:18;2.58;;;2.10;;
30743;SDS011;17486;46.738;7.622;2024-03-23T06:26:43;5.47;;;2.95;;
30743;SDS011;17486;46.738;7.622;2024-03-23T06:29:09;5.50;;;2.83;;
30743;SDS011;17486;46.738;7.622;2024-03-23T06:31:34;2.95;;;2.65;;
30743;SDS011;17486;46.738;7.622;2024-03-23T06:34:00;2.47;;;2.28;;
30743;SDS011;17486;46.738;7.622;2024-03-23T06:36:26;5.25;;;2.70;;
30743;SDS011;17486;46.738;7.622;2024-03-23T06:38:52;2.65;;;2.40;;
30743;SDS011;17486;46.738;7.622;2024-03-23T06:41:19;3.42;;;2.85;;
30743;SDS011;17486;46.738;7.622;2024-03-23T06:43:44;3.72;;;2.80;;
30743;SDS011;17486;46.738;7.622;2024-03-23T06:46:10;3.47;;;2.70;;
30743;SDS011;17486;46.738;7.622;2024-03-23T06:48:35;2.50;;;2.05;;
30743;SDS011;17486;46.738;7.622;2024-03-23T06:51:01;3.00;;;1.80;;
30743;SDS011;17486;46.738;7.622;2024-03-23T06:53:26;2.42;;;2.00;;
30743;SDS011;17486;46.738;7.622;2024-03-23T06:55:52;2.00;;;1.80;;
30743;SDS011;17486;46.738;7.622;2024-03-23T06:58:22;2.47;;;2.15;;
30743;SDS011;17486;46.738;7.622;2024-03-23T07:00:49;2.38;;;1.80;;
30743;SDS011;17486;46.738;7.622;2024-03-23T07:03:15;3.45;;;1.95;;
30743;SDS011;17486;46.738;7.622;2024-03-23T07:05:41;3.55;;;2.10;;
30743;SDS011;17486;46.738;7.622;2024-03-23T07:08:07;2.22;;;2.00;;
30743;SDS011;17486;46.738;7.622;2024-03-23T07:10:33;2.13;;;1.92;;
30743;SDS011;17486;46.738;7.622;2024-03-23T07:12:58;3.28;;;2.25;;
30743;SDS011;17486;46.738;7.622;2024-03-23T07:15:24;2.30;;;2.10;;
30743;SDS011;17486;46.738;7.622;2024-03-23T07:17:50;3.72;;;2.17;;
30743;SDS011;17486;46.738;7.622;2024-03-23T07:20:15;3.05;;;2.38;;
30743;SDS011;17486;46.738;7.622;2024-03-23T07:22:41;2.33;;;2.00;;
30743;SDS011;17486;46.738;7.622;2024-03-23T07:25:06;3.17;;;2.20;;
30743;SDS011;17486;46.738;7.622;2024-03-23T07:27:32;1.60;;;1.50;;
30743;SDS011;17486;46.738;7.622;2024-03-23T07:29:58;2.30;;;1.60;;
30743;SDS011;17486;46.738;7.622;2024-03-23T07:32:24;2.72;;;1.63;;
30743;SDS011;17486;46.738;7.622;2024-03-23T07:34:51;1.92;;;1.73;;
30743;SDS011;17486;46.738;7.622;2024-03-23T07:37:17;2.92;;;1.80;;
30743;SDS011;17486;46.738;7.622;2024-03-23T07:39:42;2.90;;;1.67;;
30743;SDS011;17486;46.738;7.622;2024-03-23T07:42:08;1.40;;;1.30;;
30743;SDS011;17486;46.738;7.622;2024-03-23T07:44:33;1.50;;;1.40;;
30743;SDS011;17486;46.738;7.622;2024-03-23T07:47:00;3.47;;;1.95;;
30743;SDS011;17486;46.738;7.622;2024-03-23T07:49:26;2.60;;;1.92;;
30743;SDS011;17486;46.738;7.622;2024-03-23T07:51:51;3.25;;;2.20;;
30743;SDS011;17486;46.738;7.622;2024-03-23T07:54:16;1.90;;;1.70;;
30743;SDS011;17486;46.738;7.622;2024-03-23T07:56:42;2.40;;;1.75;;
30743;SDS011;17486;46.738;7.622;2024-03-23T07:59:07;1.98;;;1.63;;
30743;SDS011;17486;46.738;7.622;2024-03-23T08:01:32;1.63;;;1.50;;
30743;SDS011;17486;46.738;7.622;2024-03-23T08:03:58;2.10;;;1.52;;
30743;SDS011;17486;46.738;7.622;2024-03-23T08:06:23;2.03;;;1.60;;
30743;SDS011;17486;46.738;7.622;2024-03-23T08:08:52;3.13;;;1.58;;
30743;SDS011;17486;46.738;7.622;2024-03-23T08:11:27;1.83;;;1.50;;
30743;SDS011;17486;46.738;7.622;2024-03-23T08:13:54;1.58;;;1.48;;
30743;SDS011;17486;46.738;7.622;2024-03-23T08:16:21;3.00;;;1.90;;
30743;SDS011;17486;46.738;7.622;2024-03-23T08:18:47;1.70;;;1.60;;
30743;SDS011;17486;46.738;7.622;2024-03-23T08:21:13;2.33;;;1.88;;
30743;SDS011;17486;46.738;7.622;2024-03-23T08:23:39;1.83;;;1.73;;
30743;SDS011;17486;46.738;7.622;2024-03-23T08:26:06;1.20;;;1.13;;
30743;SDS011;17486;46.738;7.622;2024-03-23T08:28:32;2.55;;;1.58;;
30743;SDS011;17486;46.738;7.622;2024-03-23T08:31:00;2.42;;;2.20;;
30743;SDS011;17486;46.738;7.622;2024-03-23T08:33:27;2.00;;;1.77;;
30743;SDS011;17486;46.738;7.622;2024-03-23T08:35:56;1.27;;;1.10;;
30743;SDS011;17486;46.738;7.622;2024-03-23T08:38:26;0.75;;;0.75;;
30743;SDS011;17486;46.738;7.622;2024-03-23T08:41:02;0.65;;;0.65;;
30743;SDS011;17486;46.738;7.622;2024-03-23T08:43:30;0.77;;;0.70;;
30743;SDS011;17486;46.738;7.622;2024-03-23T08:46:09;0.60;;;0.60;;
30743;SDS011;17486;46.738;7.622;2024-03-23T08:48:36;1.05;;;0.60;;
30743;SDS011;17486;46.738;7.622;2024-03-23T08:51:09;0.73;;;0.70;;
30743;SDS011;17486;46.738;7.622;2024-03-23T08:53:35;0.73;;;0.73;;
30743;SDS011;17486;46.738;7.622;2024-03-23T08:56:01;1.52;;;0.90;;
30743;SDS011;17486;46.738;7.622;2024-03-23T08:58:28;1.08;;;0.60;;
30743;SDS011;17486;46.738;7.622;2024-03-23T09:00:55;1.15;;;0.80;;
30743;SDS011;17486;46.738;7.622;2024-03-23T09:03:22;0.60;;;0.60;;
30743;SDS011;17486;46.738;7.622;2024-03-23T09:05:50;0.50;;;0.50;;
30743;SDS011;17486;46.738;7.622;2024-03-23T09:08:17;0.75;;;0.70;;
30743;SDS011;17486;46.738;7.622;2024-03-23T09:10:42;2.17;;;0.68;;
30743;SDS011;17486;46.738;7.622;2024-03-23T09:13:08;1.90;;;0.70;;
30743;SDS011;17486;46.738;7.622;2024-03-23T09:15:34;1.27;;;0.60;;
30743;SDS011;17486;46.738;7.622;2024-03-23T09:18:00;0.57;;;0.57;;
30743;SDS011;17486;46.738;7.622;2024-03-23T09:20:27;0.60;;;0.60;;
30743;SDS011;17486;46.738;7.622;2024-03-23T09:22:52;0.52;;;0.45;;
30743;SDS011;17486;46.738;7.622;2024-03-23T09:25:17;0.40;;;0.30;;
30743;SDS011;17486;46.738;7.622;2024-03-23T09:27:47;0.50;;;0.47;;
30743;SDS011;17486;46.738;7.622;2024-03-23T09:30:13;0.38;;;0.38;;
30743;SDS011;17486;46.738;7.622;2024-03-23T09:32:38;0.40;;;0.35;;
30743;SDS011;17486;46.738;7.622;2024-03-23T09:35:04;0.40;;;0.40;;
30743;SDS011;17486;46.738;7.622;2024-03-23T09:37:30;0.90;;;0.60;;
30743;SDS011;17486;46.738;7.622;2024-03-23T09:39:55;0.63;;;0.40;;
30743;SDS011;17486;46.738;7.622;2024-03-23T09:42:20;0.88;;;0.40;;
30743;SDS011;17486;46.738;7.622;2024-03-23T09:44:46;0.55;;;0.40;;
30743;SDS011;17486;46.738;7.622;2024-03-23T09:47:15;0.70;;;0.38;;
30743;SDS011;17486;46.738;7.622;2024-03-23T09:49:42;0.52;;;0.40;;
30743;SDS011;17486;46.738;7.622;2024-03-23T09:52:07;0.55;;;0.43;;
30743;SDS011;17486;46.738;7.622;2024-03-23T09:54:33;0.82;;;0.65;;
30743;SDS011;17486;46.738;7.622;2024-03-23T09:56:58;0.43;;;0.43;;
30743;SDS011;17486;46.738;7.622;2024-03-23T09:59:24;0.80;;;0.30;;
30743;SDS011;17486;46.738;7.622;2024-03-23T10:01:51;0.68;;;0.50;;
30743;SDS011;17486;46.738;7.622;2024-03-23T10:09:47;0.90;;;0.47;;
30743;SDS011;17486;46.738;7.622;2024-03-23T10:12:13;0.80;;;0.40;;
30743;SDS011;17486;46.738;7.622;2024-03-23T10:14:40;1.10;;;0.70;;
30743;SDS011;17486;46.738;7.622;2024-03-23T10:17:16;1.35;;;0.70;;
30743;SDS011;17486;46.738;7.622;2024-03-23T10:19:49;1.00;;;0.90;;
30743;SDS011;17486;46.738;7.622;2024-03-23T10:22:22;1.77;;;0.70;;
30743;SDS011;17486;46.738;7.622;2024-03-23T10:24:51;88.20;;;55.97;;
30743;SDS011;17486;46.738;7.622;2024-03-23T10:27:20;89.93;;;52.72;;
30743;SDS011;17486;46.738;7.622;2024-03-23T10:29:46;76.50;;;44.75;;
30743;SDS011;17486;46.738;7.622;2024-03-23T10:32:15;52.28;;;31.63;;
30743;SDS011;17486;46.738;7.622;2024-03-23T10:34:42;13.57;;;8.02;;
30743;SDS011;17486;46.738;7.622;2024-03-23T10:37:08;2.50;;;1.70;;
30743;SDS011;17486;46.738;7.622;2024-03-23T10:39:38;2.75;;;1.10;;
30743;SDS011;17486;46.738;7.622;2024-03-23T10:42:07;0.50;;;0.50;;
30743;SDS011;17486;46.738;7.622;2024-03-23T10:44:34;1.23;;;0.70;;
30743;SDS011;17486;46.738;7.622;2024-03-23T10:47:03;1.98;;;0.80;;
30743;SDS011;17486;46.738;7.622;2024-03-23T10:49:33;0.98;;;0.70;;
30743;SDS011;17486;46.738;7.622;2024-03-23T10:52:00;0.65;;;0.65;;
30743;SDS011;17486;46.738;7.622;2024-03-23T10:54:26;2.80;;;1.50;;
30743;SDS011;17486;46.738;7.622;2024-03-23T10:56:55;2.88;;;0.90;;
30743;SDS011;17486;46.738;7.622;2024-03-23T10:59:25;5.95;;;1.38;;
30743;SDS011;17486;46.738;7.622;2024-03-23T11:01:57;5.45;;;1.40;;
30743;SDS011;17486;46.738;7.622;2024-03-23T11:04:31;4.57;;;1.55;;
30743;SDS011;17486;46.738;7.622;2024-03-23T11:09:51;5.55;;;1.92;;
30743;SDS011;17486;46.738;7.622;2024-03-23T11:14:49;4.78;;;1.50;;
30743;SDS011;17486;46.738;7.622;2024-03-23T14:49:52;4.38;;;1.90;;
30743;SDS011;17486;46.738;7.622;2024-03-23T14:52:18;4.63;;;1.67;;
30743;SDS011;17486;46.738;7.622;2024-03-23T14:54:44;4.47;;;1.60;;
30743;SDS011;17486;46.738;7.622;2024-03-23T14:57:10;5.53;;;1.25;;
30743;SDS011;17486;46.738;7.622;2024-03-23T14:59:36;6.10;;;1.80;;
30743;SDS011;17486;46.738;7.622;2024-03-23T15:02:05;3.63;;;1.42;;
30743;SDS011;17486;46.738;7.622;2024-03-23T15:04:31;4.60;;;1.75;;
30743;SDS011;17486;46.738;7.622;2024-03-23T15:06:57;6.53;;;1.70;;
30743;SDS011;17486;46.738;7.622;2024-03-23T15:09:22;4.82;;;1.98;;
30743;SDS011;17486;46.738;7.622;2024-03-23T15:11:47;4.10;;;1.52;;
30743;SDS011;17486;46.738;7.622;2024-03-23T15:14:13;5.30;;;1.67;;
30743;SDS011;17486;46.738;7.622;2024-03-23T15:16:38;4.45;;;1.42;;
30743;SDS011;17486;46.738;7.622;2024-03-23T15:19:04;5.28;;;1.80;;
30743;SDS011;17486;46.738;7.622;2024-03-23T15:21:31;6.05;;;1.73;;
30743;SDS011;17486;46.738;7.622;2024-03-23T15:23:57;3.53;;;1.45;;
30743;SDS011;17486;46.738;7.622;2024-03-23T15:26:22;4.82;;;1.70;;
30743;SDS011;17486;46.738;7.622;2024-03-23T15:28:48;4.70;;;1.77;;
30743;SDS011;17486;46.738;7.622;2024-03-23T15:31:23;3.80;;;1.30;;
30743;SDS011;17486;46.738;7.622;2024-03-23T15:33:49;4.30;;;1.58;;
30743;SDS011;17486;46.738;7.622;2024-03-23T15:36:14;4.00;;;1.45;;
30743;SDS011;17486;46.738;7.622;2024-03-23T15:38:40;3.90;;;1.42;;
30743;SDS011;17486;46.738;7.622;2024-03-23T15:41:05;6.55;;;1.95;;
30743;SDS011;17486;46.738;7.622;2024-03-23T15:43:31;2.83;;;1.30;;
30743;SDS011;17486;46.738;7.622;2024-03-23T15:46:00;3.08;;;1.23;;
30743;SDS011;17486;46.738;7.622;2024-03-23T15:48:27;5.65;;;1.52;;
30743;SDS011;17486;46.738;7.622;2024-03-23T15:50:57;5.22;;;2.15;;
30743;SDS011;17486;46.738;7.622;2024-03-23T15:53:24;3.58;;;1.58;;
30743;SDS011;17486;46.738;7.622;2024-03-23T15:55:56;3.60;;;1.08;;
30743;SDS011;17486;46.738;7.622;2024-03-23T15:58:22;6.32;;;1.27;;
30743;SDS011;17486;46.738;7.622;2024-03-23T16:00:58;6.68;;;1.70;;
30743;SDS011;17486;46.738;7.622;2024-03-23T16:03:25;3.22;;;1.52;;
30743;SDS011;17486;46.738;7.622;2024-03-23T16:05:54;4.15;;;1.75;;
30743;SDS011;17486;46.738;7.622;2024-03-23T16:08:22;5.78;;;1.58;;
30743;SDS011;17486;46.738;7.622;2024-03-23T16:10:48;4.05;;;1.50;;
30743;SDS011;17486;46.738;7.622;2024-03-23T16:13:14;3.45;;;1.55;;
30743;SDS011;17486;46.738;7.622;2024-03-23T16:15:39;2.95;;;1.33;;
30743;SDS011;17486;46.738;7.622;2024-03-23T16:18:05;4.20;;;1.60;;
30743;SDS011;17486;46.738;7.622;2024-03-23T16:20:30;5.22;;;1.40;;
30743;SDS011;17486;46.738;7.622;2024-03-23T16:22:58;5.47;;;1.60;;
30743;SDS011;17486;46.738;7.622;2024-03-23T16:25:27;4.55;;;1.40;;
30743;SDS011;17486;46.738;7.622;2024-03-23T16:27:53;3.28;;;1.50;;
30743;SDS011;17486;46.738;7.622;2024-03-23T16:30:19;4.28;;;1.30;;
30743;SDS011;17486;46.738;7.622;2024-03-23T16:32:45;4.60;;;1.73;;
30743;SDS011;17486;46.738;7.622;2024-03-23T16:35:13;3.63;;;1.67;;
30743;SDS011;17486;46.738;7.622;2024-03-23T16:37:40;4.55;;;1.38;;
30743;SDS011;17486;46.738;7.622;2024-03-23T16:40:06;6.00;;;1.70;;
30743;SDS011;17486;46.738;7.622;2024-03-23T16:42:34;4.32;;;1.65;;
30743;SDS011;17486;46.738;7.622;2024-03-23T16:45:02;5.55;;;2.00;;
30743;SDS011;17486;46.738;7.622;2024-03-23T16:47:28;4.10;;;1.80;;
30743;SDS011;17486;46.738;7.622;2024-03-23T16:49:54;3.42;;;1.40;;
30743;SDS011;17486;46.738;7.622;2024-03-23T16:52:19;4.32;;;1.58;;
30743;SDS011;17486;46.738;7.622;2024-03-23T16:54:45;3.65;;;1.42;;
30743;SDS011;17486;46.738;7.622;2024-03-23T16:57:10;5.35;;;2.15;;
30743;SDS011;17486;46.738;7.622;2024-03-23T16:59:36;4.20;;;1.73;;
30743;SDS011;17486;46.738;7.622;2024-03-23T17:02:01;4.88;;;1.80;;
30743;SDS011;17486;46.738;7.622;2024-03-23T17:04:27;4.93;;;1.80;;
30743;SDS011;17486;46.738;7.622;2024-03-23T17:06:52;4.53;;;1.92;;
30743;SDS011;17486;46.738;7.622;2024-03-23T17:09:18;3.83;;;1.45;;
30743;SDS011;17486;46.738;7.622;2024-03-23T17:11:43;4.80;;;1.60;;
30743;SDS011;17486;46.738;7.622;2024-03-23T17:14:10;3.03;;;1.42;;
30743;SDS011;17486;46.738;7.622;2024-03-23T17:16:37;3.92;;;1.63;;
30743;SDS011;17486;46.738;7.622;2024-03-23T17:19:02;4.90;;;2.75;;
30743;SDS011;17486;46.738;7.622;2024-03-23T17:21:28;6.53;;;3.88;;
30743;SDS011;17486;46.738;7.622;2024-03-23T17:23:53;5.30;;;3.13;;
30743;SDS011;17486;46.738;7.622;2024-03-23T17:26:23;4.45;;;2.03;;
30743;SDS011;17486;46.738;7.622;2024-03-23T17:28:48;4.97;;;2.05;;
30743;SDS011;17486;46.738;7.622;2024-03-23T17:31:14;6.90;;;2.22;;
30743;SDS011;17486;46.738;7.622;2024-03-23T17:33:43;5.70;;;1.80;;
30743;SDS011;17486;46.738;7.622;2024-03-23T17:36:09;2.40;;;1.30;;
30743;SDS011;17486;46.738;7.622;2024-03-23T17:38:35;3.28;;;1.60;;
30743;SDS011;17486;46.738;7.622;2024-03-23T17:41:02;2.40;;;1.35;;
30743;SDS011;17486;46.738;7.622;2024-03-23T17:43:29;3.45;;;1.50;;
30743;SDS011;17486;46.738;7.622;2024-03-23T17:45:54;3.28;;;1.42;;
30743;SDS011;17486;46.738;7.622;2024-03-23T17:48:19;3.47;;;1.17;;
30743;SDS011;17486;46.738;7.622;2024-03-23T17:50:45;3.53;;;1.60;;
30743;SDS011;17486;46.738;7.622;2024-03-23T17:53:10;4.47;;;1.50;;
30743;SDS011;17486;46.738;7.622;2024-03-23T17:55:35;2.65;;;1.33;;
30743;SDS011;17486;46.738;7.622;2024-03-23T17:58:01;4.53;;;1.58;;
30743;SDS011;17486;46.738;7.622;2024-03-23T18:00:26;3.20;;;1.40;;
30743;SDS011;17486;46.738;7.622;2024-03-23T18:02:52;2.78;;;1.40;;
30743;SDS011;17486;46.738;7.622;2024-03-23T18:05:17;4.05;;;1.63;;
30743;SDS011;17486;46.738;7.622;2024-03-23T18:07:46;3.70;;;1.58;;
30743;SDS011;17486;46.738;7.622;2024-03-23T18:10:12;3.55;;;1.50;;
30743;SDS011;17486;46.738;7.622;2024-03-23T18:12:37;2.85;;;1.52;;
30743;SDS011;17486;46.738;7.622;2024-03-23T18:15:03;3.60;;;1.30;;
30743;SDS011;17486;46.738;7.622;2024-03-23T18:17:30;3.63;;;1.42;;
30743;SDS011;17486;46.738;7.622;2024-03-23T18:19:56;5.50;;;2.10;;
30743;SDS011;17486;46.738;7.622;2024-03-23T18:22:21;5.30;;;2.30;;
30743;SDS011;17486;46.738;7.622;2024-03-23T18:24:47;4.47;;;2.00;;
30743;SDS011;17486;46.738;7.622;2024-03-23T18:27:12;3.90;;;1.63;;
30743;SDS011;17486;46.738;7.622;2024-03-23T18:29:38;3.63;;;1.33;;
30743;SDS011;17486;46.738;7.622;2024-03-23T18:32:06;4.68;;;1.67;;
30743;SDS011;17486;46.738;7.622;2024-03-23T18:34:32;3.50;;;1.40;;
30743;SDS011;17486;46.738;7.622;2024-03-23T18:36:57;74.53;;;40.80;;
30743;SDS011;17486;46.738;7.622;2024-03-23T18:39:23;68.13;;;35.60;;
30743;SDS011;17486;46.738;7.622;2024-03-23T18:41:48;55.38;;;29.27;;
30743;SDS011;17486;46.738;7.622;2024-03-23T18:44:14;16.23;;;7.43;;
30743;SDS011;17486;46.738;7.622;2024-03-23T18:46:39;5.35;;;2.10;;
30743;SDS011;17486;46.738;7.622;2024-03-23T18:49:04;4.72;;;1.80;;
30743;SDS011;17486;46.738;7.622;2024-03-23T18:51:30;4.03;;;1.60;;
30743;SDS011;17486;46.738;7.622;2024-03-23T18:53:55;3.80;;;1.40;;
30743;SDS011;17486;46.738;7.622;2024-03-23T18:56:27;2.05;;;1.20;;
30743;SDS011;17486;46.738;7.622;2024-03-23T18:58:52;3.55;;;1.35;;
30743;SDS011;17486;46.738;7.622;2024-03-23T19:01:18;4.70;;;1.15;;
30743;SDS011;17486;46.738;7.622;2024-03-23T19:03:45;4.47;;;1.48;;
30743;SDS011;17486;46.738;7.622;2024-03-23T19:06:10;3.08;;;1.30;;
30743;SDS011;17486;46.738;7.622;2024-03-23T19:08:36;4.47;;;1.40;;
30743;SDS011;17486;46.738;7.622;2024-03-23T19:11:01;2.00;;;1.00;;
30743;SDS011;17486;46.738;7.622;2024-03-23T19:13:27;1.85;;;1.00;;
30743;SDS011;17486;46.738;7.622;2024-03-23T19:15:54;3.72;;;1.10;;
30743;SDS011;17486;46.738;7.622;2024-03-23T19:18:19;2.65;;;0.98;;